Latest Weather Observations for King Island Airport

IDT60801

Issued at 6:31 pm EST Tuesday 3 May 2016 (issued every 30 minutes, with the page automatically refreshed every 10 minutes)

About weather observations | Map of weather stations | Latest weather observations for TAS | Other Formats
Station Details ID: 098017 Name: KING ISLAND AIRPORT Lat: -39.88 Lon: 143.88 Height: 37.0 m
Data from the previous 72 hours. | See also: Recent months at King Island Airport
Date/Time
EST
Temp
°C
App
Temp
°C
Dew
Point
Rel
Hum
%
Delta-T
°C
Wind Press
QNH
hPa
Press
MSL
hPa
Rain
since 9 am
mm
Dir
 
Spd
km/h
Gust
km/h
Spd
kts
Gust
kts
03/06:30pm 12.1 2.7 5.5 64 3.1 WNW 44 59 24 32 1000.2 1000.2 7.8
03/06:01pm 10.9 2.2 5.9 71 2.3 W 41 59 22 32 999.9 999.9 7.8
03/06:00pm 10.9 1.8 5.9 71 2.3 W 43 59 23 32 999.9 999.9 7.8
03/05:30pm 11.6 2.4 5.3 65 2.9 W 43 65 23 35 999.1 999.1 7.8
03/05:01pm 11.5 3.2 6.2 70 2.5 W 39 57 21 31 998.6 998.6 7.8
03/05:00pm 11.3 3.3 5.6 68 2.7 W 37 54 20 29 998.6 998.6 7.8
03/04:30pm 10.7 1.4 6.1 73 2.1 W 44 69 24 37 998.0 998.0 7.8
03/04:17pm 10.7 0.5 6.8 77 1.8 W 50 80 27 43 997.6 997.6 7.8
03/04:10pm 11.0 2.0 7.1 77 1.9 W 44 80 24 43 997.4 997.4 7.8
03/04:05pm 10.8 0.7 7.5 80 1.6 W 50 80 27 43 997.1 997.1 7.8
03/04:04pm 10.6 0.1 7.5 81 1.5 W 52 80 28 43 997.1 997.1 7.8
03/04:00pm 10.4 -0.3 8.2 86 1.1 W 54 80 29 43 997.2 997.2 7.8
03/03:59pm 10.6 0.0 8.4 86 1.1 W 54 80 29 43 997.1 997.1 7.6
03/03:40pm 12.4 3.7 7.7 73 2.3 WNW 43 67 23 36 996.5 996.5 7.2
03/03:38pm 12.3 3.7 8.0 75 2.1 WNW 43 59 23 32 996.5 996.5 7.2
03/03:30pm 10.9 3.0 8.0 82 1.4 WNW 39 59 21 32 996.4 996.4 7.2
03/03:22pm 10.2 1.0 8.1 87 1.0 W 46 83 25 45 996.5 996.5 7.2
03/03:17pm 10.6 2.3 7.8 83 1.4 W 41 78 22 42 997.1 997.1 6.8
03/03:03pm 12.5 5.7 7.6 72 2.4 W 33 52 18 28 995.9 995.9 6.4
03/03:00pm 12.8 5.8 8.5 75 2.2 W 35 52 19 28 995.8 995.8 6.4
03/02:30pm 11.2 2.7 9.3 88 1.0 W 44 69 24 37 995.6 995.6 6.4
03/02:00pm 12.5 4.0 8.6 77 2.0 W 43 65 23 35 994.8 994.8 6.4
03/01:48pm 12.0 4.6 9.9 87 1.1 W 39 61 21 33 994.7 994.7 6.4
03/01:32pm 11.1 2.7 9.5 90 0.8 W 44 63 24 34 994.5 994.5 6.4
03/01:30pm 11.2 2.4 9.6 90 0.8 W 46 63 25 34 994.5 994.5 6.4
03/01:29pm 11.2 2.4 9.6 90 0.8 W 46 63 25 34 994.5 994.5 6.2
03/01:14pm 11.8 3.0 9.5 86 1.2 W 46 67 25 36 994.4 994.4 5.8
03/01:04pm 11.9 2.3 9.6 86 1.2 W 50 69 27 37 994.4 994.4 5.4
03/01:01pm 11.9 2.5 10.1 89 0.9 W 50 65 27 35 994.4 994.4 5.4
03/01:00pm 12.1 2.4 10.5 90 0.8 W 52 65 28 35 994.5 994.5 5.4
03/12:48pm 12.3 4.8 9.5 83 1.4 W 39 57 21 31 994.1 994.1 5.4
03/12:35pm 12.2 5.4 10.8 91 0.7 W 37 52 20 28 994.2 994.2 5.4
03/12:30pm 12.0 5.6 10.6 91 0.7 W 35 52 19 28 994.0 994.0 5.4
03/12:27pm 12.1 6.2 11.0 93 0.6 W 33 52 18 28 994.1 994.1 5.4
03/12:14pm 11.8 5.1 11.0 95 0.4 W 37 52 20 28 994.4 994.4 5.2
03/12:00pm 11.6 4.4 10.7 94 0.5 W 39 57 21 31 994.6 994.6 4.0
03/11:56am 12.4 5.7 11.1 92 0.7 W 37 57 20 31 994.4 994.4 3.4
03/11:49am 13.1 6.8 11.2 88 1.0 W 35 52 19 28 994.2 994.2 3.0
03/11:30am 14.1 8.1 10.7 80 1.8 WNW 33 46 18 25 994.2 994.2 2.6
03/11:00am 13.6 7.1 10.2 80 1.8 WNW 35 48 19 26 994.4 994.4 2.6
03/10:39am 13.7 7.8 10.5 81 1.7 WNW 32 50 17 27 994.4 994.4 2.6
03/10:30am 13.5 8.2 11.4 87 1.1 WNW 30 39 16 21 994.1 994.1 2.6
03/10:25am 13.5 8.0 11.7 89 1.0 W 32 50 17 27 994.3 994.3 2.6
03/10:00am 13.7 7.8 11.2 85 1.3 W 33 50 18 27 994.3 994.3 2.6
03/09:36am 13.1 7.0 11.7 91 0.7 W 35 54 19 29 994.3 994.3 2.4
03/09:33am 12.8 6.2 11.5 92 0.7 W 37 54 20 29 994.4 994.4 2.4
03/09:30am 12.7 5.8 11.6 93 0.6 W 39 54 21 29 994.4 994.4 2.4
03/09:29am 12.7 5.9 11.8 94 0.5 W 39 57 21 31 994.4 994.4 2.4
03/09:10am 12.7 4.6 12.1 96 0.3 WNW 46 65 25 35 994.4 994.4 1.8
03/09:07am 12.5 3.2 11.9 96 0.3 WNW 52 67 28 36 994.3 994.3 1.8
03/09:00am 13.8 4.1 13.0 95 0.4 NW 56 70 30 38 993.6 993.6 27.2
03/08:48am 13.5 3.6 12.9 96 0.3 NW 57 76 31 41 993.7 993.7 26.4
03/08:47am 13.3 2.9 12.7 96 0.3 NW 59 76 32 41 993.8 993.8 26.4
03/08:30am 14.5 4.8 13.5 94 0.6 NNW 57 76 31 41 993.3 993.3 21.4
03/08:11am 14.1 5.2 13.1 94 0.6 NW 52 70 28 38 993.6 993.6 20.8
03/08:00am 14.3 5.5 13.3 94 0.6 NW 52 67 28 36 993.7 993.7 20.4
03/07:31am 13.9 5.1 13.4 97 0.3 NW 52 72 28 39 993.9 993.9 19.8
03/07:30am 13.9 5.1 13.4 97 0.3 NW 52 65 28 35 993.9 993.9 19.8
03/07:20am 14.1 5.0 13.8 98 0.2 NW 54 72 29 39 993.9 993.9 19.2
03/07:00am 14.0 5.6 13.5 97 0.3 NW 50 61 27 33 994.0 994.0 18.4
03/06:35am 13.7 6.3 13.1 96 0.3 NW 44 56 24 30 994.3 994.3 17.2
03/06:30am 13.6 6.1 12.8 95 0.4 NW 44 56 24 30 994.3 994.3 17.0
03/06:14am 13.7 5.6 13.1 96 0.3 NW 48 63 26 34 994.5 994.5 16.6
03/06:00am 13.5 3.9 13.2 98 0.2 NW 56 78 30 42 994.8 994.8 15.8
03/05:58am 13.3 3.6 13.1 99 0.1 NW 56 78 30 42 994.8 994.8 15.6
03/05:55am 13.3 4.0 13.1 99 0.1 NW 54 69 29 37 994.8 994.8 15.2
03/05:30am 13.2 4.3 13.0 99 0.1 WNW 52 72 28 39 994.6 994.6 10.4
03/05:16am 13.8 2.3 12.7 93 0.6 NW 65 83 35 45 995.3 995.3 2.6
03/05:14am 15.4 4.5 13.4 88 1.1 NW 63 80 34 43 995.3 995.3 0.2
03/05:00am 15.4 3.2 12.9 85 1.4 NNW 69 96 37 52 994.0 994.0 0.0
03/04:33am 15.9 5.3 13.0 83 1.6 NNW 61 83 33 45 994.2 994.2 0.0
03/04:30am 15.9 5.2 12.8 82 1.7 NNW 61 78 33 42 994.3 994.3 0.0
03/04:00am 15.8 4.6 12.5 81 1.8 NNW 63 87 34 47 994.4 994.4 0.0
03/03:30am 16.1 3.6 12.5 79 2.0 NNW 70 91 38 49 994.6 994.6 0.0
03/03:00am 16.2 3.6 12.2 77 2.2 NNW 70 96 38 52 995.1 995.1 0.0
03/02:30am 16.3 5.0 12.1 76 2.3 NNW 63 89 34 48 995.8 995.8 0.0
03/02:00am 16.3 5.1 12.3 77 2.2 NNW 63 83 34 45 996.2 996.2 0.0
03/01:30am 16.0 3.8 11.8 76 2.3 NNW 67 89 36 48 996.9 996.9 0.0
03/01:00am 16.1 5.2 12.3 78 2.1 NNW 61 83 33 45 997.3 997.3 0.0
03/12:30am 16.2 5.3 12.2 77 2.2 NNW 61 91 33 49 998.0 998.0 0.0
03/12:00am 16.3 5.2 11.7 74 2.5 NNW 61 80 33 43 998.2 998.2 0.0
 
Date/Time
EST
Temp
°C
App
Temp
°C
Dew
Point
Rel
Hum
%
Delta-T
°C
Wind Press
QNH
hPa
Press
MSL
hPa
Rain
since 9 am
mm
Dir
 
Spd
km/h
Gust
km/h
Spd
kts
Gust
kts
02/11:40pm 16.2 5.5 11.6 74 2.5 NNW 59 78 32 42 998.6 998.6 0.0
02/11:30pm 16.1 5.4 11.7 75 2.4 NNW 59 76 32 41 998.8 998.8 0.0
02/11:02pm 16.3 5.6 11.5 73 2.6 NNW 59 78 32 42 999.1 999.1 0.0
02/11:00pm 16.2 5.1 11.6 74 2.5 NNW 61 78 33 42 999.2 999.2 0.0
02/10:30pm 15.9 5.5 11.3 74 2.5 NNW 57 78 31 42 999.7 999.7 0.0
02/10:00pm 16.1 5.3 11.3 73 2.6 NNW 59 85 32 46 1000.2 1000.2 0.0
02/09:30pm 16.1 6.1 10.6 70 2.9 NNW 54 74 29 40 1000.6 1000.6 0.0
02/09:00pm 16.2 6.4 11.4 73 2.6 NNW 54 72 29 39 1000.9 1000.9 0.0
02/08:33pm 16.1 6.5 10.8 71 2.8 NNW 52 72 28 39 1001.0 1001.0 0.0
02/08:30pm 16.2 6.6 10.7 70 2.9 NNW 52 69 28 37 1001.1 1001.1 0.0
02/08:00pm 16.6 6.6 10.7 68 3.2 NNW 54 74 29 40 1001.5 1001.5 0.0
02/07:30pm 16.4 6.8 10.9 70 2.9 NNW 52 74 28 40 1002.0 1002.0 0.0
02/07:03pm 16.4 6.0 10.7 69 3.0 NNW 56 74 30 40 1001.9 1001.9 0.0
02/07:00pm 16.4 5.8 10.7 69 3.1 NNW 57 74 31 40 1001.9 1001.9 0.0
02/06:39pm 16.0 6.9 11.2 73 2.6 NNW 50 70 27 38 1002.2 1002.2 0.0
02/06:30pm 16.1 7.0 11.3 73 2.6 NNW 50 67 27 36 1002.3 1002.3 0.0
02/06:00pm 16.1 5.7 10.8 71 2.8 NNW 56 70 30 38 1002.2 1002.2 0.0
02/05:31pm 16.7 6.6 10.3 66 3.4 NNW 54 76 29 41 1002.1 1002.1 0.0
02/05:30pm 16.4 6.3 10.5 68 3.1 NNW 54 70 29 38 1002.1 1002.1 0.0
02/05:00pm 16.3 5.9 10.6 69 3.0 NNW 56 70 30 38 1002.4 1002.4 0.0
02/04:30pm 16.2 6.1 10.5 69 3.0 NNW 54 70 29 38 1002.7 1002.7 0.0
02/04:00pm 16.1 5.2 10.8 71 2.8 NNW 59 70 32 38 1003.0 1003.0 0.0
02/03:51pm 16.4 6.0 10.7 69 3.0 NNW 56 74 30 40 1003.0 1003.0 0.0
02/03:30pm 16.1 5.0 10.2 68 3.1 NNW 59 76 32 41 1003.1 1003.1 0.0
02/03:05pm 16.3 5.2 10.2 67 3.2 NNW 59 78 32 42 1003.4 1003.4 0.0
02/03:00pm 16.3 5.3 10.6 69 3.0 NNW 59 76 32 41 1003.3 1003.3 0.0
02/02:31pm 15.8 5.8 10.6 71 2.8 NW 54 72 29 39 1003.8 1003.8 0.0
02/02:30pm 15.9 5.5 10.7 71 2.8 NW 56 72 30 39 1003.8 1003.8 0.0
02/02:09pm 16.1 5.3 9.8 66 3.3 NW 57 76 31 41 1004.0 1004.0 0.0
02/02:00pm 16.3 4.8 10.2 67 3.2 NNW 61 78 33 42 1004.1 1004.1 0.0
02/01:34pm 16.0 5.8 9.9 67 3.2 NNW 54 72 29 39 1004.4 1004.4 0.0
02/01:30pm 16.0 5.3 10.3 69 3.0 NNW 57 72 31 39 1004.5 1004.5 0.0
02/01:05pm 15.3 5.1 10.1 71 2.7 NW 54 72 29 39 1005.1 1005.1 0.0
02/01:00pm 15.5 5.7 10.1 70 2.8 NW 52 69 28 37 1005.1 1005.1 0.0
02/12:55pm 15.3 5.1 9.9 70 2.8 NNW 54 72 29 39 1005.1 1005.1 0.0
02/12:30pm 15.3 5.2 10.3 72 2.6 NNW 54 69 29 37 1005.4 1005.4 0.0
02/12:00pm 14.7 4.5 9.9 73 2.5 NNW 54 69 29 37 1006.1 1006.1 0.0
02/11:30am 15.0 5.7 10.4 74 2.4 NNW 50 63 27 34 1006.4 1006.4 0.0
02/11:18am 15.0 5.2 10.2 73 2.5 NNW 52 70 28 38 1006.5 1006.5 0.0
02/11:00am 14.9 4.7 10.1 73 2.5 NNW 54 69 29 37 1006.7 1006.7 0.0
02/10:30am 14.5 4.9 10.7 78 2.0 NW 52 70 28 38 1006.8 1006.8 0.0
02/10:01am 14.9 5.8 11.1 78 2.0 NNW 50 69 27 37 1007.1 1007.1 0.0
02/10:00am 14.8 5.3 11.0 78 2.0 NNW 52 69 28 37 1007.0 1007.0 0.0
02/09:30am 13.9 4.5 10.1 78 2.0 NW 50 63 27 34 1007.4 1007.4 0.0
02/09:00am 13.7 5.0 10.1 79 1.9 NW 46 67 25 36 1007.9 1007.9 5.8
02/08:54am 13.6 4.7 10.6 82 1.6 NW 48 67 26 36 1007.9 1007.9 5.8
02/08:30am 13.2 3.1 10.4 83 1.5 NW 54 67 29 36 1008.0 1008.0 5.8
02/08:25am 13.4 4.2 10.8 84 1.4 NW 50 67 27 36 1007.9 1007.9 5.8
02/08:19am 13.2 6.6 11.3 88 1.0 NW 37 57 20 31 1007.8 1007.8 5.8
02/08:05am 12.0 5.1 10.4 90 0.8 WNW 37 57 20 31 1008.0 1008.0 5.6
02/08:04am 12.1 4.8 10.3 89 0.9 NW 39 57 21 31 1008.0 1008.0 5.2
02/08:00am 12.6 4.1 10.5 87 1.1 NW 46 57 25 31 1008.1 1008.1 5.0
02/07:30am 13.3 4.6 9.9 80 1.8 NW 46 56 25 30 1008.0 1008.0 5.0
02/07:10am 13.2 6.9 9.8 80 1.7 NW 33 56 18 30 1008.1 1008.1 5.0
02/07:00am 12.8 6.8 10.2 84 1.3 NW 32 44 17 24 1008.1 1008.1 5.0
02/06:51am 12.4 6.3 10.5 88 1.0 NW 33 41 18 22 1008.3 1008.3 5.0
02/06:40am 12.1 4.9 10.7 91 0.7 NW 39 57 21 31 1008.3 1008.3 5.0
02/06:30am 12.6 3.7 10.7 88 1.0 NW 48 59 26 32 1008.4 1008.4 4.6
02/06:17am 12.5 5.0 10.9 90 0.8 NW 41 59 22 32 1008.3 1008.3 4.4
02/06:16am 12.7 5.6 10.9 89 0.9 NW 39 59 21 32 1008.4 1008.4 4.4
02/06:00am 12.4 6.2 10.0 85 1.2 WNW 33 46 18 25 1008.4 1008.4 3.8
02/05:55am 12.5 6.7 10.9 90 0.8 WNW 32 41 17 22 1008.5 1008.5 3.8
02/05:44am 12.3 5.5 10.7 90 0.8 WNW 37 50 20 27 1008.6 1008.6 3.8
02/05:30am 13.1 6.7 10.6 85 1.3 WNW 35 46 19 25 1008.4 1008.4 3.2
02/05:00am 12.7 6.4 8.8 77 2.0 WNW 32 37 17 20 1008.6 1008.6 3.2
02/04:48am 12.3 6.0 9.7 84 1.3 WNW 33 52 18 28 1008.7 1008.7 3.2
02/04:30am 13.0 6.3 8.3 73 2.3 WNW 33 43 18 23 1008.7 1008.7 3.2
02/04:00am 12.4 6.1 8.9 79 1.8 WNW 32 43 17 23 1009.0 1009.1 3.2
02/03:59am 12.4 6.2 9.4 82 1.5 WNW 32 50 17 27 1009.0 1009.1 3.2
02/03:30am 13.2 6.6 7.9 70 2.6 WNW 32 41 17 22 1009.3 1009.4 3.2
02/03:00am 12.7 5.2 8.0 73 2.3 WNW 37 56 20 30 1009.6 1009.7 3.2
02/02:59am 12.7 5.2 7.8 72 2.4 WNW 37 56 20 30 1009.6 1009.7 3.2
02/02:30am 13.0 4.8 6.4 64 3.2 WNW 39 52 21 28 1009.8 1009.9 3.2
02/02:00am 12.9 4.7 6.7 66 3.0 WNW 39 56 21 30 1010.1 1010.1 3.2
02/01:53am 13.1 5.7 6.9 66 3.0 WNW 35 56 19 30 1010.2 1010.2 3.2
02/01:30am 12.9 5.2 6.9 67 2.9 WNW 37 52 20 28 1010.3 1010.3 3.2
02/01:02am 12.7 5.9 6.7 67 2.9 WNW 32 54 17 29 1010.5 1010.5 3.2
02/01:00am 12.6 6.1 6.6 67 2.9 WNW 30 43 16 23 1010.5 1010.5 3.2
02/12:30am 13.0 5.5 6.4 64 3.2 W 35 56 19 30 1010.8 1010.8 3.2
02/12:00am 12.9 5.0 6.0 63 3.3 W 37 56 20 30 1011.1 1011.1 3.2
 
Date/Time
EST
Temp
°C
App
Temp
°C
Dew
Point
Rel
Hum
%
Delta-T
°C
Wind Press
QNH
hPa
Press
MSL
hPa
Rain
since 9 am
mm
Dir
 
Spd
km/h
Gust
km/h
Spd
kts
Gust
kts
01/11:57pm 12.9 4.9 5.8 62 3.3 W 37 56 20 30 1011.1 1011.1 3.2
01/11:30pm 12.1 5.3 7.0 71 2.4 W 32 43 17 23 1011.2 1011.2 3.2
01/11:06pm 12.5 5.1 6.8 68 2.7 W 35 54 19 29 1011.2 1011.2 3.0
01/11:00pm 12.4 5.4 6.9 69 2.6 WNW 33 48 18 26 1011.3 1011.3 3.0
01/10:30pm 12.9 5.9 6.9 67 2.9 WNW 33 52 18 28 1011.2 1011.2 3.0
01/10:27pm 12.8 6.1 7.3 69 2.7 WNW 32 52 17 28 1011.2 1011.2 3.0
01/10:00pm 13.0 4.9 5.4 60 3.6 W 37 52 20 28 1011.4 1011.4 3.0
01/09:34pm 12.4 5.0 6.7 68 2.7 W 35 54 19 29 1011.2 1011.2 3.0
01/09:30pm 12.5 4.5 5.9 64 3.1 W 37 54 20 29 1011.3 1011.3 3.0
01/09:06pm 12.3 5.2 6.4 67 2.8 WSW 33 52 18 28 1011.1 1011.1 3.0
01/09:00pm 12.0 5.1 7.1 72 2.4 WSW 33 50 18 27 1011.1 1011.1 3.0
01/08:43pm 12.7 5.6 8.2 74 2.2 W 35 54 19 29 1011.0 1011.0 3.0
01/08:30pm 12.4 4.8 5.8 64 3.1 W 35 52 19 28 1011.0 1011.0 3.0
01/08:00pm 12.2 5.4 7.9 75 2.1 W 33 46 18 25 1010.6 1010.6 3.0
01/07:30pm 12.3 6.0 7.4 72 2.4 W 30 48 16 26 1010.5 1010.5 3.0
01/07:00pm 12.0 5.2 7.5 74 2.2 W 33 52 18 28 1010.5 1010.5 3.0
01/06:34pm 12.1 4.9 9.1 82 1.5 W 37 63 20 34 1010.3 1010.3 3.0
01/06:30pm 12.4 5.2 7.5 72 2.4 W 35 46 19 25 1010.1 1010.1 3.0
01/06:05pm 11.5 3.8 7.0 74 2.2 WSW 37 56 20 30 1009.8 1009.9 3.0
01/06:00pm 12.4 4.9 8.1 75 2.1 W 37 54 20 29 1009.7 1009.8 3.0
01/05:30pm 12.4 4.6 6.5 67 2.8 W 37 54 20 29 1009.1 1009.2 3.0
01/05:20pm 12.9 5.0 7.8 71 2.5 WSW 39 57 21 31 1008.9 1009.0 3.0
01/05:00pm 12.8 5.2 7.5 70 2.6 W 37 54 20 29 1008.8 1008.9 3.0
01/04:44pm 11.9 3.6 6.2 68 2.7 WSW 39 57 21 31 1008.6 1008.6 3.0
01/04:30pm 12.9 5.2 6.9 67 2.9 WSW 37 52 20 28 1008.4 1008.4 3.0
01/04:00pm 12.9 4.8 7.1 68 2.8 WSW 39 61 21 33 1007.8 1007.8 3.0
01/03:32pm 12.5 5.1 8.2 75 2.1 WSW 37 56 20 30 1007.4 1007.4 2.8
01/03:30pm 12.5 4.6 8.0 74 2.2 WSW 39 56 21 30 1007.3 1007.3 2.8
01/03:26pm 12.2 3.5 7.9 75 2.1 WSW 43 61 23 33 1007.3 1007.3 2.8
01/03:15pm 11.3 2.5 8.2 81 1.5 WSW 44 67 24 36 1007.0 1007.0 2.8
01/03:13pm 11.8 3.1 8.6 81 1.6 WSW 44 63 24 34 1006.9 1006.9 2.6
01/03:00pm 12.2 3.7 9.2 82 1.5 WSW 44 78 24 42 1006.4 1006.4 2.4
01/02:53pm 11.5 3.0 8.7 83 1.4 WSW 43 78 23 42 1006.5 1006.5 2.4
01/02:30pm 12.8 4.7 8.7 76 2.1 WSW 41 61 22 33 1005.9 1005.9 1.4
01/02:27pm 12.7 4.3 9.0 78 1.9 W 43 61 23 33 1005.7 1005.7 1.4
01/02:11pm 12.8 3.9 7.7 71 2.5 WSW 44 61 24 33 1005.5 1005.5 1.2
01/02:00pm 11.8 2.7 8.5 80 1.6 WSW 46 70 25 38 1005.3 1005.3 1.2
01/01:53pm 11.5 1.6 8.2 80 1.6 WSW 50 70 27 38 1005.4 1005.4 1.2
01/01:33pm 13.7 6.5 9.2 74 2.3 W 37 56 20 30 1004.8 1004.8 0.4
01/01:30pm 13.2 5.4 8.3 72 2.4 WSW 39 56 21 30 1004.9 1004.9 0.4
01/01:15pm 12.4 3.1 7.5 72 2.4 WSW 46 76 25 41 1004.8 1004.8 0.4
01/01:00pm 14.2 5.0 7.9 66 3.1 WSW 46 61 25 33 1004.5 1004.5 0.4
01/12:30pm 14.2 4.5 7.3 63 3.4 WSW 48 72 26 39 1004.1 1004.1 0.4
01/12:01pm 14.0 6.1 9.2 73 2.4 WSW 41 59 22 32 1003.8 1003.8 0.4
01/12:00pm 13.9 5.6 9.3 74 2.4 WSW 43 59 23 32 1003.8 1003.8 0.4
01/11:30am 14.2 4.7 8.2 67 3.0 WSW 48 67 26 36 1003.4 1003.4 0.4
01/11:11am 13.4 5.3 10.2 81 1.7 WSW 43 61 23 33 1003.0 1003.0 0.4
01/11:10am 13.2 5.1 10.0 81 1.7 WSW 43 59 23 32 1003.0 1003.0 0.4
01/11:00am 12.2 2.8 10.3 88 1.0 WSW 50 82 27 44 1003.1 1003.1 0.4
01/10:53am 11.8 2.0 8.8 82 1.5 WSW 50 82 27 44 1002.9 1002.9 0.2
01/10:51am 12.8 4.2 10.3 85 1.3 WSW 46 82 25 44 1002.8 1002.8 0.2
01/10:44am 14.6 5.9 8.5 67 3.1 WSW 44 63 24 34 1002.5 1002.5 0.0
01/10:30am 13.6 4.5 8.4 71 2.6 WSW 46 63 25 34 1002.2 1002.2 0.0
01/10:00am 13.6 3.4 8.4 71 2.6 WSW 52 72 28 39 1001.4 1001.4 0.0
01/09:30am 13.4 3.6 8.5 72 2.5 WSW 50 70 27 38 1000.5 1000.5 0.0
01/09:00am 13.4 4.8 8.9 74 2.3 WSW 44 63 24 34 999.9 999.9 20.4
01/08:31am 13.0 2.5 10.2 83 1.4 WSW 56 76 30 41 999.2 999.2 20.4
01/08:30am 12.9 2.3 10.1 83 1.4 WSW 56 76 30 41 999.2 999.2 20.4
01/08:00am 12.9 2.1 9.9 82 1.6 WSW 57 82 31 44 997.7 997.7 20.4
01/07:40am 13.4 3.8 12.1 92 0.7 W 54 76 29 41 996.8 996.8 20.4
01/07:30am 13.8 6.2 12.4 91 0.8 W 44 69 24 37 996.3 996.3 20.4
01/07:26am 14.5 6.5 12.5 88 1.1 WNW 46 69 25 37 996.0 996.0 20.4
01/07:23am 14.5 5.8 12.4 87 1.1 WNW 50 72 27 39 995.9 995.9 20.4
01/07:14am 14.7 6.4 12.6 87 1.2 NW 48 72 26 39 995.8 995.8 20.4
01/07:00am 14.7 5.1 12.2 85 1.4 NW 54 69 29 37 995.7 995.7 20.4
01/06:30am 14.4 4.3 12.3 87 1.1 NNW 57 82 31 44 995.7 995.7 20.4
01/06:02am 14.8 6.2 11.6 81 1.7 NNW 48 69 26 37 996.1 996.1 20.4
01/06:00am 14.6 6.8 11.7 83 1.6 NNW 44 61 24 33 996.2 996.2 20.4
01/05:33am 15.7 9.7 13.2 85 1.4 N 37 56 20 30 996.6 996.6 20.4
01/05:30am 15.6 9.2 13.1 85 1.4 N 39 56 21 30 996.7 996.7 20.4
01/05:20am 15.5 10.3 12.8 84 1.5 N 32 50 17 27 996.9 996.9 20.4
01/05:00am 14.6 11.2 13.8 95 0.5 NNE 24 33 13 18 997.2 997.2 20.4
01/04:30am 14.7 11.5 14.2 97 0.3 NNE 24 33 13 18 997.7 997.7 20.4
01/04:00am 14.2 11.3 14.0 99 0.1 NNE 22 30 12 16 999.1 999.1 19.6
01/03:30am 13.6 9.3 13.3 98 0.2 NNE 28 35 15 19 1000.4 1000.4 18.6
01/03:16am 13.4 9.0 12.9 97 0.3 NNE 28 33 15 18 1000.6 1000.6 17.4
01/03:00am 13.5 9.1 12.9 96 0.3 N 28 37 15 20 1001.0 1001.0 16.0
01/02:30am 13.3 7.8 12.5 95 0.4 NNW 33 48 18 26 1001.8 1001.8 12.6
01/02:08am 11.8 6.1 11.2 96 0.3 NNW 32 50 17 27 1001.8 1001.8 11.0
01/02:00am 12.0 4.2 11.2 95 0.4 N 43 93 23 50 1002.7 1002.7 8.6
01/01:55am 12.5 8.7 11.2 92 0.7 E 22 93 12 50 1003.1 1003.1 4.8
01/01:54am 13.3 10.5 11.5 89 1.0 E 17 91 9 49 1002.8 1002.8 4.4
01/01:30am 14.5 11.2 10.9 79 1.9 WSW 19 28 10 15 1000.9 1000.9 4.0
01/01:00am 14.6 12.3 11.7 83 1.6 NW 15 22 8 12 1001.0 1001.0 4.0
01/12:58am 14.8 12.5 11.9 83 1.6 WNW 15 22 8 12 1001.2 1001.2 4.0
01/12:38am 13.7 7.4 11.2 85 1.3 NW 35 57 19 31 1002.9 1002.9 2.4
01/12:32am 15.8 10.5 11.4 75 2.4 NNE 30 57 16 31 1003.5 1003.5 1.0
01/12:31am 16.6 12.1 12.6 77 2.2 NNE 28 54 15 29 1003.4 1003.4 1.0
01/12:30am 17.8 14.6 15.4 86 1.4 NNE 26 35 14 19 1002.9 1002.9 1.0
01/12:00am 16.9 16.0 14.9 88 1.2 NE 13 19 7 10 1001.8 1001.8 1.0
 
Date/Time
EST
Temp
°C
App
Temp
°C
Dew
Point
Rel
Hum
%
Delta-T
°C
Wind Press
QNH
hPa
Press
MSL
hPa
Rain
since 9 am
mm
Dir
 
Spd
km/h
Gust
km/h
Spd
kts
Gust
kts
30/11:30pm 17.8 14.0 14.7 82 1.8 N 28 41 15 22 1003.3 1003.3 1.0
30/11:10pm 17.5 13.9 15.3 87 1.3 NNE 28 54 15 29 1004.2 1004.2 0.0
30/11:00pm 16.8 14.2 14.8 88 1.2 NNE 22 30 12 16 1003.8 1003.8 0.0
30/10:30pm 16.3 13.8 14.0 86 1.3 NE 20 28 11 15 1005.0 1005.0 0.0
30/10:00pm 15.3 12.8 12.4 83 1.6 NE 17 22 9 12 1006.1 1006.1 0.0
30/09:30pm 14.7 12.7 12.6 87 1.2 ENE 15 19 8 10 1006.4 1006.4 0.0
30/09:00pm 14.6 13.1 13.1 91 0.8 NE 13 19 7 10 1007.0 1007.0 0.0
30/08:30pm 13.8 12.5 12.5 92 0.7 ENE 11 13 6 7 1007.1 1007.1 0.0
30/08:00pm 13.3 12.2 11.9 91 0.8 ESE 9 11 5 6 1007.4 1007.4 0.0
30/07:30pm 13.2 12.0 11.6 90 0.9 ENE 9 11 5 6 1007.6 1007.6 0.0
30/07:00pm 13.1 11.9 11.7 91 0.7 ENE 9 11 5 6 1007.6 1007.6 0.0

Other Formats:

Comma delimited format used in spreadsheet applications
http://www.bom.gov.au/fwo/IDT60801/IDT60801.94850.axf

JavaScript Object Notation format (JSON) in row-major order
http://www.bom.gov.au/fwo/IDT60801/IDT60801.94850.json